Terminal Aerodrome Forecast
Issued by NWS

Home | Current Version | Previous Version | Graphics & Text | Print | Product List | Glossary On
Versions: 1 2 3 4 5 6 7 8 9 10 11 12 13 14 15 16 17 18
000
FTUS43 KOAX 300500
TAFCDR
TAF
KCDR 300520Z 3006/0106 01015G22KT 3SM RA BR BKN010 OVC025
      TEMPO 3006/3010 1SM +RA BR BKN004 OVC008
     FM301000 27020G30KT 5SM -RA BKN007 OVC015
     FM301500 27028G38KT P6SM BKN025 OVC050
     FM302200 28015G22KT P6SM SCT050 BKN100=

USA.gov is the U.S. government's official web portal to all federal, state and local government web resources and services.